createdAt,value
2018-06-04T00:01:42.967Z,18.71
2018-06-04T00:03:55.329Z,18.70
2018-06-04T00:06:07.715Z,18.61
2018-06-04T00:08:20.171Z,18.50
2018-06-04T00:10:32.561Z,18.40
2018-06-04T00:12:45.010Z,18.39
2018-06-04T00:14:57.354Z,18.40
2018-06-04T00:17:09.725Z,18.47
2018-06-04T00:19:22.126Z,18.49
2018-06-04T00:21:34.500Z,18.50
2018-06-04T00:23:46.815Z,18.53
2018-06-04T00:25:59.203Z,18.53
2018-06-04T00:28:11.719Z,18.55
2018-06-04T00:30:24.126Z,18.54
2018-06-04T00:32:36.539Z,18.51
2018-06-04T00:34:49.067Z,18.45
2018-06-04T00:37:01.538Z,18.42
2018-06-04T00:39:13.954Z,18.36
2018-06-04T00:41:26.386Z,18.30
2018-06-04T00:43:38.867Z,18.27
2018-06-04T00:45:51.261Z,18.24
2018-06-04T00:48:03.795Z,18.18
2018-06-04T00:50:16.121Z,18.17
2018-06-04T00:52:28.581Z,18.16
2018-06-04T00:54:41.051Z,18.07
2018-06-04T00:56:53.455Z,18.05
2018-06-04T00:59:05.871Z,18.01
2018-06-04T01:01:18.337Z,17.98
2018-06-04T01:03:30.791Z,17.99
2018-06-04T01:05:43.179Z,18.06
2018-06-04T01:07:55.587Z,18.11
2018-06-04T01:10:08.022Z,18.09
2018-06-04T01:12:20.463Z,18.13
2018-06-04T01:14:32.978Z,18.14
2018-06-04T01:16:45.440Z,18.12
2018-06-04T01:18:57.935Z,18.12
2018-06-04T01:21:10.383Z,18.13
2018-06-04T01:23:22.807Z,18.13
2018-06-04T01:25:35.198Z,18.08
2018-06-04T01:27:47.643Z,18.02
2018-06-04T01:30:00.053Z,17.95
2018-06-04T01:32:12.419Z,17.90
2018-06-04T01:34:24.823Z,17.89
2018-06-04T01:36:37.285Z,17.81
2018-06-04T01:38:49.674Z,17.73
2018-06-04T01:41:02.062Z,17.71
2018-06-04T01:43:14.474Z,17.70
2018-06-04T01:45:26.939Z,17.67
2018-06-04T01:47:39.351Z,17.59
2018-06-04T01:49:51.775Z,17.52
2018-06-04T01:52:04.304Z,17.50
2018-06-04T01:54:16.690Z,17.44
2018-06-04T01:56:29.488Z,17.51
2018-06-04T01:58:41.850Z,17.53
2018-06-04T02:00:54.258Z,17.50
2018-06-04T02:03:06.655Z,17.43
2018-06-04T02:05:19.043Z,17.40
2018-06-04T02:07:31.488Z,17.35
2018-06-04T02:09:43.907Z,17.30
2018-06-04T02:11:56.282Z,17.20
2018-06-04T02:14:08.714Z,17.22
2018-06-04T02:16:21.132Z,17.14
2018-06-04T02:18:33.508Z,17.05
2018-06-04T02:20:45.946Z,16.94
2018-06-04T02:22:58.514Z,16.86
2018-06-04T02:25:10.887Z,16.79
2018-06-04T02:27:23.252Z,16.85
2018-06-04T02:29:35.611Z,16.88
2018-06-04T02:31:47.988Z,16.88
2018-06-04T02:34:00.370Z,16.89
2018-06-04T02:36:12.867Z,16.93
2018-06-04T02:38:25.259Z,16.88
2018-06-04T02:40:37.756Z,16.86
2018-06-04T02:42:50.276Z,16.92
2018-06-04T02:45:02.754Z,16.97
2018-06-04T02:47:15.228Z,16.99
2018-06-04T02:49:27.602Z,16.98
2018-06-04T02:51:39.992Z,16.98
2018-06-04T02:53:52.449Z,16.94
2018-06-04T02:56:04.829Z,16.92
2018-06-04T02:58:17.175Z,16.94
2018-06-04T03:00:29.574Z,16.93
2018-06-04T03:02:42.015Z,16.90
2018-06-04T03:04:54.500Z,16.90
2018-06-04T03:07:06.964Z,16.90
2018-06-04T03:09:19.317Z,16.90
2018-06-04T03:11:31.743Z,16.90
2018-06-04T03:13:44.158Z,16.93
2018-06-04T03:15:56.555Z,16.93
2018-06-04T03:18:09.083Z,16.94
2018-06-04T03:20:21.502Z,16.97
2018-06-04T03:22:33.846Z,16.97
2018-06-04T03:24:46.364Z,16.97
2018-06-04T03:26:58.710Z,16.96
2018-06-04T03:29:11.082Z,16.95
2018-06-04T03:31:23.548Z,16.94
2018-06-04T03:33:36.043Z,16.91
2018-06-04T03:35:48.482Z,16.92
2018-06-04T03:38:00.875Z,16.91
2018-06-04T03:40:13.286Z,16.85
2018-06-04T03:42:25.618Z,16.82
2018-06-04T03:44:38.017Z,16.76
2018-06-04T03:46:50.442Z,16.71
2018-06-04T03:49:02.807Z,16.64
2018-06-04T03:51:15.414Z,16.61
2018-06-04T03:53:27.788Z,16.63
2018-06-04T03:55:40.205Z,16.67
2018-06-04T03:57:52.687Z,16.72
2018-06-04T04:00:05.307Z,16.78
2018-06-04T04:02:17.719Z,16.79
2018-06-04T04:04:30.131Z,16.85
2018-06-04T04:06:42.530Z,16.88
2018-06-04T04:08:54.938Z,16.91
2018-06-04T04:11:07.264Z,16.94
2018-06-04T04:13:19.645Z,17.02
2018-06-04T04:15:32.074Z,17.10
2018-06-04T04:17:44.507Z,17.10
2018-06-04T04:19:56.981Z,17.09
2018-06-04T04:22:09.414Z,17.11
2018-06-04T04:24:22.088Z,17.19
2018-06-04T04:26:34.432Z,17.29
2018-06-04T04:28:46.903Z,17.44
2018-06-04T04:30:59.343Z,17.60
2018-06-04T04:33:11.778Z,17.77
2018-06-04T04:35:24.168Z,17.95
2018-06-04T04:37:36.556Z,18.10
2018-06-04T04:39:49.003Z,18.21
2018-06-04T04:42:01.380Z,18.33
2018-06-04T04:44:13.839Z,18.45
2018-06-04T04:46:26.220Z,18.61
2018-06-04T04:48:38.792Z,18.70
2018-06-04T04:50:51.258Z,18.81
2018-06-04T04:53:03.675Z,18.89
2018-06-04T04:55:16.102Z,19.03
2018-06-04T04:57:28.547Z,19.15
2018-06-04T04:59:41.133Z,19.25
2018-06-04T05:01:53.485Z,19.37
2018-06-04T05:04:05.890Z,19.47
2018-06-04T05:06:18.314Z,19.61
2018-06-04T05:08:30.862Z,19.71
2018-06-04T05:10:43.246Z,19.80
2018-06-04T05:12:55.633Z,19.90
2018-06-04T05:15:08.015Z,19.99
2018-06-04T05:17:20.423Z,20.09
2018-06-04T05:19:32.820Z,20.19
2018-06-04T05:21:45.338Z,20.26
2018-06-04T05:23:57.695Z,20.40
2018-06-04T05:26:10.133Z,20.54
2018-06-04T05:28:22.486Z,20.62
2018-06-04T05:30:34.936Z,20.64
2018-06-04T05:32:47.399Z,20.74
2018-06-04T05:34:59.874Z,20.78
2018-06-04T05:37:12.370Z,20.87
2018-06-04T05:39:24.788Z,20.84
2018-06-04T05:41:37.219Z,20.91
2018-06-04T05:43:49.631Z,21.03
2018-06-04T05:46:02.145Z,21.18
2018-06-04T05:48:14.562Z,21.31
2018-06-04T05:50:27.247Z,21.46
2018-06-04T05:52:39.881Z,21.58
2018-06-04T05:54:52.352Z,21.65
2018-06-04T05:57:04.775Z,21.74
2018-06-04T05:59:18.035Z,21.87
2018-06-04T06:01:30.417Z,21.90
2018-06-04T06:03:42.836Z,22.01
2018-06-04T06:05:55.726Z,22.10
2018-06-04T06:08:08.183Z,22.15
2018-06-04T06:10:20.536Z,22.29
2018-06-04T06:12:32.897Z,22.43
2018-06-04T06:14:45.278Z,22.54
2018-06-04T06:16:57.692Z,22.55
2018-06-04T06:19:10.123Z,22.64
2018-06-04T06:21:22.512Z,22.73
2018-06-04T06:23:34.990Z,22.89
2018-06-04T06:25:47.442Z,23.02
2018-06-04T06:27:59.845Z,23.14
2018-06-04T06:30:12.371Z,23.28
2018-06-04T06:32:24.749Z,23.45
2018-06-04T06:34:37.402Z,23.58
2018-06-04T06:36:49.807Z,23.71
2018-06-04T06:39:02.259Z,23.94
2018-06-04T06:41:14.688Z,24.12
2018-06-04T06:43:27.039Z,24.22
2018-06-04T06:45:39.450Z,24.15
2018-06-04T06:47:51.911Z,24.42
2018-06-04T06:50:05.705Z,24.38
2018-06-04T06:52:18.125Z,24.46
2018-06-04T06:54:30.506Z,24.77
2018-06-04T06:56:43.080Z,25.18
2018-06-04T06:58:55.531Z,25.51
2018-06-04T07:01:07.920Z,25.90
2018-06-04T07:03:20.330Z,26.12
2018-06-04T07:05:32.694Z,26.33
2018-06-04T07:07:45.147Z,26.39
2018-06-04T07:09:57.680Z,26.61
2018-06-04T07:12:10.072Z,26.98
2018-06-04T07:14:22.562Z,27.15
2018-06-04T07:16:34.916Z,27.56
2018-06-04T07:18:47.258Z,27.92
2018-06-04T07:20:59.886Z,28.21
2018-06-04T07:23:12.257Z,28.42
2018-06-04T07:25:24.643Z,28.52
2018-06-04T07:27:37.071Z,28.72
2018-06-04T07:29:49.519Z,29.02
2018-06-04T07:32:01.893Z,29.14
2018-06-04T07:34:14.238Z,29.20
2018-06-04T07:36:26.668Z,29.43
2018-06-04T07:38:39.886Z,29.63
2018-06-04T07:40:52.231Z,29.76
2018-06-04T07:43:04.913Z,29.88
2018-06-04T07:45:17.315Z,29.99
2018-06-04T07:47:33.155Z,29.92
2018-06-04T07:49:45.563Z,29.94
2018-06-04T07:51:57.940Z,30.04
2018-06-04T07:54:10.501Z,30.11
2018-06-04T07:56:22.928Z,30.25
2018-06-04T07:58:35.329Z,30.43
2018-06-04T08:00:47.669Z,30.32
2018-06-04T08:03:00.054Z,30.45
2018-06-04T08:05:12.455Z,30.45
2018-06-04T08:07:24.844Z,30.37
2018-06-04T08:09:37.260Z,30.43
2018-06-04T08:11:49.655Z,30.53
2018-06-04T08:14:02.171Z,30.69
2018-06-04T08:16:14.569Z,30.79
2018-06-04T08:18:26.973Z,30.71
2018-06-04T08:20:39.532Z,30.58
2018-06-04T08:22:51.915Z,30.71
2018-06-04T08:25:04.347Z,30.80
2018-06-04T08:27:16.782Z,30.95
2018-06-04T08:29:29.090Z,31.11
2018-06-04T08:31:42.132Z,31.23
2018-06-04T08:33:54.699Z,31.19
2018-06-04T08:36:07.130Z,31.04
2018-06-04T08:38:19.544Z,31.04
2018-06-04T08:40:32.000Z,31.03
2018-06-04T08:42:44.398Z,31.03
2018-06-04T08:44:57.816Z,31.17
2018-06-04T08:47:10.239Z,31.19
2018-06-04T08:49:22.636Z,31.34
2018-06-04T08:51:35.008Z,31.40
2018-06-04T08:53:47.439Z,31.59
2018-06-04T08:55:59.794Z,31.67
2018-06-04T08:58:12.248Z,31.69
2018-06-04T09:00:24.625Z,31.71
2018-06-04T09:02:37.012Z,31.71
2018-06-04T09:04:49.416Z,31.75
2018-06-04T09:07:01.817Z,31.71
2018-06-04T09:09:14.264Z,31.43
2018-06-04T09:11:26.637Z,31.22
2018-06-04T09:13:38.999Z,30.90
2018-06-04T09:15:51.363Z,30.62
2018-06-04T09:18:04.128Z,30.64
2018-06-04T09:20:16.648Z,30.56
2018-06-04T09:22:28.958Z,30.64
2018-06-04T09:24:41.472Z,30.99
2018-06-04T09:26:53.865Z,31.32
2018-06-04T09:29:06.354Z,31.41
2018-06-04T09:31:18.739Z,31.09
2018-06-04T09:33:31.106Z,30.85
2018-06-04T09:35:43.469Z,30.54
2018-06-04T09:37:55.867Z,30.53
2018-06-04T09:40:08.444Z,30.89
2018-06-04T09:42:20.875Z,31.11
2018-06-04T09:44:33.182Z,31.36
2018-06-04T09:46:45.570Z,31.72
2018-06-04T09:48:59.354Z,31.96
2018-06-04T09:51:11.710Z,31.82
2018-06-04T09:53:24.242Z,31.33
2018-06-04T09:55:36.710Z,31.41
2018-06-04T09:57:49.050Z,31.71
2018-06-04T10:00:02.183Z,32.10
2018-06-04T10:02:14.623Z,32.46
2018-06-04T10:04:27.066Z,32.82
2018-06-04T10:06:39.404Z,33.10
2018-06-04T10:08:51.801Z,32.93
2018-06-04T10:11:04.456Z,32.77
2018-06-04T10:13:16.828Z,32.88
2018-06-04T10:15:29.254Z,33.06
2018-06-04T10:17:41.682Z,33.19
2018-06-04T10:19:54.060Z,33.19
2018-06-04T10:22:06.603Z,33.00
2018-06-04T10:24:18.963Z,32.78
2018-06-04T10:26:31.335Z,32.65
2018-06-04T10:28:43.774Z,32.38
2018-06-04T10:30:56.135Z,31.87
2018-06-04T10:33:08.532Z,31.52
2018-06-04T10:35:21.051Z,31.26
2018-06-04T10:37:33.685Z,31.39
2018-06-04T10:39:46.065Z,31.59
2018-06-04T10:41:58.433Z,31.83
2018-06-04T10:44:10.856Z,32.13
2018-06-04T10:46:23.337Z,32.32
2018-06-04T10:48:35.697Z,32.08
2018-06-04T10:50:48.111Z,31.88
2018-06-04T10:53:00.598Z,31.88
2018-06-04T10:55:12.951Z,31.90
2018-06-04T10:57:25.311Z,31.79
2018-06-04T10:59:37.833Z,31.95
2018-06-04T11:01:50.232Z,31.75
2018-06-04T11:04:02.820Z,31.63
2018-06-04T11:06:15.233Z,31.77
2018-06-04T11:08:27.583Z,31.83
2018-06-04T11:10:39.920Z,32.04
2018-06-04T11:12:52.390Z,32.07
2018-06-04T11:15:04.767Z,32.18
2018-06-04T11:17:17.254Z,32.32
2018-06-04T11:19:29.591Z,32.41
2018-06-04T11:21:41.982Z,32.51
2018-06-04T11:23:54.633Z,32.66
2018-06-04T11:26:07.058Z,32.60
2018-06-04T11:28:19.511Z,32.49
2018-06-04T11:30:31.867Z,32.26
2018-06-04T11:32:44.230Z,32.06
2018-06-04T11:34:56.711Z,32.01
2018-06-04T11:37:09.114Z,32.25
2018-06-04T11:39:21.487Z,32.45
2018-06-04T11:41:34.050Z,32.63
2018-06-04T11:43:46.469Z,32.85
2018-06-04T11:45:58.939Z,32.63
2018-06-04T11:48:11.303Z,32.29
2018-06-04T11:50:23.794Z,31.97
2018-06-04T11:52:36.162Z,31.41
2018-06-04T11:54:50.821Z,31.18
2018-06-04T11:57:03.462Z,30.95
2018-06-04T11:59:15.814Z,30.93
2018-06-04T12:01:28.414Z,30.86
2018-06-04T12:03:40.766Z,30.96
2018-06-04T12:05:53.197Z,31.12
2018-06-04T12:08:05.595Z,31.34
2018-06-04T12:10:17.945Z,31.51
2018-06-04T12:12:30.452Z,31.57
2018-06-04T12:14:42.905Z,31.41
2018-06-04T12:16:55.267Z,31.25
2018-06-04T12:19:07.654Z,31.34
2018-06-04T12:21:20.114Z,31.58
2018-06-04T12:23:32.518Z,31.71
2018-06-04T12:25:44.868Z,31.78
2018-06-04T12:27:57.324Z,31.69
2018-06-04T12:30:09.687Z,31.57
2018-06-04T12:32:23.470Z,31.51
2018-06-04T12:34:35.858Z,31.28
2018-06-04T12:36:48.402Z,31.28
2018-06-04T12:39:00.754Z,31.16
2018-06-04T12:41:13.114Z,30.85
2018-06-04T12:43:25.497Z,30.65
2018-06-04T12:45:38.198Z,30.35
2018-06-04T12:47:50.610Z,30.13
2018-06-04T12:50:02.959Z,30.22
2018-06-04T12:52:15.426Z,30.35
2018-06-04T12:54:27.787Z,30.53
2018-06-04T12:56:40.180Z,30.54
2018-06-04T12:58:54.032Z,30.61
2018-06-04T13:01:06.405Z,30.75
2018-06-04T13:03:18.792Z,30.93
2018-06-04T13:05:31.421Z,31.10
2018-06-04T13:07:43.812Z,31.10
2018-06-04T13:09:56.301Z,31.05
2018-06-04T13:12:08.777Z,30.87
2018-06-04T13:14:21.778Z,30.87
2018-06-04T13:16:34.179Z,30.96
2018-06-04T13:18:46.597Z,30.96
2018-06-04T13:20:58.950Z,30.74
2018-06-04T13:23:11.365Z,30.51
2018-06-04T13:25:23.706Z,30.52
2018-06-04T13:27:36.519Z,30.67
2018-06-04T13:29:48.887Z,30.84
2018-06-04T13:32:01.304Z,30.97
2018-06-04T13:34:14.498Z,31.12
2018-06-04T13:36:26.945Z,31.22
2018-06-04T13:38:39.348Z,31.35
2018-06-04T13:40:51.834Z,31.32
2018-06-04T13:43:04.271Z,31.24
2018-06-04T13:45:16.693Z,31.24
2018-06-04T13:47:29.057Z,31.07
2018-06-04T13:49:41.633Z,31.04
2018-06-04T13:51:54.974Z,30.66
2018-06-04T13:54:07.357Z,30.42
2018-06-04T13:56:19.798Z,30.44
2018-06-04T13:58:32.176Z,30.54
2018-06-04T14:00:44.667Z,30.44
2018-06-04T14:02:57.030Z,30.40
2018-06-04T14:05:10.126Z,30.38
2018-06-04T14:07:22.475Z,30.48
2018-06-04T14:09:34.918Z,30.58
2018-06-04T14:11:47.491Z,30.48
2018-06-04T14:13:59.873Z,30.32
2018-06-04T14:16:12.238Z,30.25
2018-06-04T14:18:24.649Z,30.28
2018-06-04T14:20:37.085Z,30.26
2018-06-04T14:22:49.538Z,30.26
2018-06-04T14:25:01.950Z,30.22
2018-06-04T14:27:14.350Z,30.09
2018-06-04T14:29:26.697Z,30.19
2018-06-04T14:31:39.202Z,30.14
2018-06-04T14:33:51.703Z,30.00
2018-06-04T14:36:04.037Z,30.00
2018-06-04T14:38:16.511Z,30.09
2018-06-04T14:40:28.854Z,30.17
2018-06-04T14:42:41.431Z,30.28
2018-06-04T14:44:53.814Z,30.27
2018-06-04T14:47:06.241Z,30.16
2018-06-04T14:49:18.594Z,30.12
2018-06-04T14:51:31.041Z,30.14
2018-06-04T14:53:43.604Z,30.02
2018-06-04T14:55:56.340Z,29.91
2018-06-04T14:58:08.768Z,29.80
2018-06-04T15:00:21.208Z,29.66
2018-06-04T15:02:33.603Z,29.68
2018-06-04T15:04:46.024Z,29.78
2018-06-04T15:06:58.354Z,29.89
2018-06-04T15:09:10.730Z,29.97
2018-06-04T15:11:23.205Z,30.02
2018-06-04T15:13:35.592Z,30.02
2018-06-04T15:15:49.022Z,29.92
2018-06-04T15:18:01.549Z,29.82
2018-06-04T15:20:13.965Z,29.71
2018-06-04T15:22:26.346Z,29.57
2018-06-04T15:24:38.755Z,29.57
2018-06-04T15:26:51.246Z,29.64
2018-06-04T15:29:03.608Z,29.73
2018-06-04T15:31:16.169Z,29.77
2018-06-04T15:33:28.885Z,29.80
2018-06-04T15:35:41.287Z,29.87
2018-06-04T15:37:53.755Z,29.92
2018-06-04T15:40:06.007Z,29.98
2018-06-04T15:42:18.418Z,29.98
2018-06-04T15:44:30.875Z,30.04
2018-06-04T15:46:43.271Z,30.09
2018-06-04T15:48:55.713Z,30.08
2018-06-04T15:51:08.086Z,30.06
2018-06-04T15:53:20.524Z,30.06
2018-06-04T15:55:32.933Z,30.03
2018-06-04T15:57:45.381Z,30.01
2018-06-04T15:59:57.775Z,29.92
2018-06-04T16:02:10.268Z,29.89
2018-06-04T16:04:22.671Z,29.85
2018-06-04T16:06:35.110Z,29.73
2018-06-04T16:08:47.558Z,29.71
2018-06-04T16:10:59.949Z,29.77
2018-06-04T16:13:12.343Z,29.80
2018-06-04T16:15:24.729Z,29.80
2018-06-04T16:17:37.139Z,29.73
2018-06-04T16:19:49.821Z,29.72
2018-06-04T16:22:02.281Z,29.61
2018-06-04T16:24:15.127Z,29.61
2018-06-04T16:26:27.618Z,29.60
2018-06-04T16:28:40.053Z,29.62
2018-06-04T16:30:52.612Z,29.63
2018-06-04T16:33:05.586Z,29.58
2018-06-04T16:35:18.053Z,29.53
2018-06-04T16:37:30.542Z,29.53
2018-06-04T16:39:42.875Z,29.57
2018-06-04T16:41:55.307Z,29.54
2018-06-04T16:44:07.793Z,29.57
2018-06-04T16:46:20.196Z,29.56
2018-06-04T16:48:32.590Z,29.55
2018-06-04T16:50:45.001Z,29.46
2018-06-04T16:52:57.396Z,29.44
2018-06-04T16:55:09.910Z,29.52
2018-06-04T16:57:23.614Z,29.46
2018-06-04T16:59:36.124Z,29.47
2018-06-04T17:01:48.424Z,29.43
2018-06-04T17:04:02.076Z,29.34
2018-06-04T17:06:14.435Z,29.25
2018-06-04T17:08:26.819Z,29.27
2018-06-04T17:10:39.222Z,29.22
2018-06-04T17:12:51.637Z,29.19
2018-06-04T17:15:04.174Z,29.12
2018-06-04T17:17:16.643Z,29.03
2018-06-04T17:19:29.221Z,29.00
2018-06-04T17:21:41.709Z,28.93
2018-06-04T17:23:54.137Z,28.79
2018-06-04T17:26:06.624Z,28.74
2018-06-04T17:28:19.242Z,28.71
2018-06-04T17:30:31.650Z,28.71
2018-06-04T17:32:44.554Z,28.68
2018-06-04T17:34:57.019Z,28.66
2018-06-04T17:37:09.461Z,28.62
2018-06-04T17:39:21.987Z,28.60
2018-06-04T17:41:34.604Z,28.58
2018-06-04T17:43:47.044Z,28.54
2018-06-04T17:45:59.616Z,28.48
2018-06-04T17:48:12.014Z,28.49
2018-06-04T17:50:24.399Z,28.46
2018-06-04T17:52:36.797Z,28.43
2018-06-04T17:54:49.475Z,28.45
2018-06-04T17:57:01.972Z,28.43
2018-06-04T17:59:14.574Z,28.33
2018-06-04T18:01:26.911Z,28.30
2018-06-04T18:03:39.346Z,28.24
2018-06-04T18:05:51.762Z,28.17
2018-06-04T18:08:04.257Z,28.17
2018-06-04T18:10:16.601Z,28.15
2018-06-04T18:12:29.012Z,28.07
2018-06-04T18:14:42.279Z,28.05
2018-06-04T18:16:54.659Z,28.01
2018-06-04T18:19:07.030Z,27.95
2018-06-04T18:21:23.133Z,27.89
2018-06-04T18:23:35.563Z,27.89
2018-06-04T18:25:48.094Z,27.82
2018-06-04T18:28:00.667Z,27.81
2018-06-04T18:30:13.229Z,27.80
2018-06-04T18:32:25.588Z,27.74
2018-06-04T18:34:38.105Z,27.65
2018-06-04T18:36:50.512Z,27.64
2018-06-04T18:39:03.515Z,27.58
2018-06-04T18:41:16.000Z,27.53
2018-06-04T18:43:28.393Z,27.47
2018-06-04T18:45:40.826Z,27.45
2018-06-04T18:47:53.294Z,27.42
2018-06-04T18:50:05.774Z,27.44
2018-06-04T18:52:18.128Z,27.47
2018-06-04T18:54:30.563Z,27.42
2018-06-04T18:56:42.940Z,27.36
2018-06-04T18:58:55.330Z,27.29
2018-06-04T19:01:07.756Z,27.25
2018-06-04T19:03:20.146Z,27.24
2018-06-04T19:05:32.632Z,27.21
2018-06-04T19:07:45.038Z,27.18
2018-06-04T19:09:57.574Z,27.19
2018-06-04T19:12:10.025Z,27.13
2018-06-04T19:14:22.561Z,27.10
2018-06-04T19:16:34.908Z,27.02
2018-06-04T19:18:47.274Z,26.97
2018-06-04T19:20:59.690Z,26.93
2018-06-04T19:23:12.150Z,26.91
2018-06-04T19:25:24.574Z,26.85
2018-06-04T19:27:37.020Z,26.78
2018-06-04T19:29:49.474Z,26.60
2018-06-04T19:32:01.935Z,26.31
2018-06-04T19:34:14.323Z,26.12
2018-06-04T19:36:26.706Z,25.91
2018-06-04T19:38:39.082Z,25.81
2018-06-04T19:40:51.506Z,25.73
2018-06-04T19:43:03.910Z,25.59
2018-06-04T19:45:16.525Z,25.39
2018-06-04T19:47:28.939Z,25.20
2018-06-04T19:49:41.386Z,24.97
2018-06-04T19:51:53.971Z,24.73
2018-06-04T19:54:06.560Z,24.60
2018-06-04T19:56:19.054Z,24.47
2018-06-04T19:58:31.597Z,24.46
2018-06-04T20:00:44.074Z,24.39
2018-06-04T20:02:56.580Z,24.31
2018-06-04T20:05:09.036Z,24.19
2018-06-04T20:07:21.549Z,24.06
2018-06-04T20:09:33.966Z,23.90
2018-06-04T20:11:46.330Z,23.78
2018-06-04T20:13:58.738Z,23.75
2018-06-04T20:16:11.247Z,23.70
2018-06-04T20:18:23.661Z,23.70
2018-06-04T20:20:36.125Z,23.61
2018-06-04T20:22:48.500Z,23.48
2018-06-04T20:25:00.896Z,23.45
2018-06-04T20:27:13.266Z,23.46
2018-06-04T20:29:25.617Z,23.41
2018-06-04T20:31:38.054Z,23.39
2018-06-04T20:33:50.499Z,23.28
2018-06-04T20:36:02.819Z,23.18
2018-06-04T20:38:15.291Z,23.13
2018-06-04T20:40:33.526Z,22.99
2018-06-04T20:43:02.244Z,22.89
2018-06-04T20:45:14.961Z,22.81
2018-06-04T20:47:27.459Z,22.74
2018-06-04T20:49:39.838Z,22.73
2018-06-04T20:51:54.175Z,22.68
2018-06-04T20:54:11.554Z,22.63
2018-06-04T20:56:24.194Z,22.60
2018-06-04T20:58:36.665Z,22.54
2018-06-04T21:00:49.058Z,22.50
2018-06-04T21:03:01.411Z,22.52
2018-06-04T21:05:13.885Z,22.45
2018-06-04T21:07:26.267Z,22.43
2018-06-04T21:09:38.627Z,22.40
2018-06-04T21:11:51.027Z,22.36
2018-06-04T21:14:03.547Z,22.37
2018-06-04T21:16:15.965Z,22.38
2018-06-04T21:18:28.350Z,22.38
2018-06-04T21:20:40.678Z,22.36
2018-06-04T21:22:53.022Z,22.33
2018-06-04T21:25:05.465Z,22.39
2018-06-04T21:27:17.813Z,22.38
2018-06-04T21:29:30.162Z,22.40
2018-06-04T21:31:42.526Z,22.36
2018-06-04T21:33:54.891Z,22.33
2018-06-04T21:36:07.366Z,22.29
2018-06-04T21:38:19.775Z,22.20
2018-06-04T21:40:32.200Z,22.15
2018-06-04T21:42:44.693Z,22.08
2018-06-04T21:44:57.062Z,22.04
2018-06-04T21:47:09.388Z,22.02
2018-06-04T21:49:21.863Z,21.96
2018-06-04T21:51:34.315Z,21.90
2018-06-04T21:53:46.895Z,21.89
2018-06-04T21:55:59.273Z,21.87
2018-06-04T21:58:11.595Z,21.81
2018-06-04T22:00:24.151Z,21.80
2018-06-04T22:02:37.434Z,21.74
2018-06-04T22:04:49.952Z,21.76
2018-06-04T22:07:02.308Z,21.79
2018-06-04T22:09:14.741Z,21.76
2018-06-04T22:11:27.184Z,21.68
2018-06-04T22:13:39.577Z,21.67
2018-06-04T22:15:51.982Z,21.64
2018-06-04T22:18:04.393Z,21.59
2018-06-04T22:20:17.026Z,21.55
2018-06-04T22:22:29.402Z,21.54
2018-06-04T22:24:41.793Z,21.53
2018-06-04T22:26:54.179Z,21.47
2018-06-04T22:29:06.523Z,21.42
2018-06-04T22:31:19.030Z,21.32
2018-06-04T22:33:31.663Z,21.25
2018-06-04T22:35:44.014Z,21.23
2018-06-04T22:37:56.372Z,21.22
2018-06-04T22:40:08.691Z,21.26
2018-06-04T22:42:21.179Z,21.25
2018-06-04T22:44:33.545Z,21.27
2018-06-04T22:46:45.949Z,21.24
2018-06-04T22:48:59.037Z,21.26
2018-06-04T22:51:11.410Z,21.25
2018-06-04T22:53:23.750Z,21.26
2018-06-04T22:55:36.199Z,21.26
2018-06-04T22:57:48.745Z,21.24
2018-06-04T23:00:01.256Z,21.26
2018-06-04T23:02:13.591Z,21.18
2018-06-04T23:04:26.002Z,21.17
2018-06-04T23:06:38.415Z,21.19
2018-06-04T23:08:50.865Z,21.14
2018-06-04T23:11:03.286Z,21.15
2018-06-04T23:13:15.701Z,21.15
2018-06-04T23:15:28.070Z,21.05
2018-06-04T23:17:40.365Z,20.99
2018-06-04T23:19:52.714Z,20.96
2018-06-04T23:22:05.093Z,20.87
2018-06-04T23:24:17.491Z,20.82
2018-06-04T23:26:29.851Z,20.81
2018-06-04T23:28:42.197Z,20.74
2018-06-04T23:30:54.526Z,20.63
2018-06-04T23:33:06.863Z,20.61
2018-06-04T23:35:19.278Z,20.62
2018-06-04T23:37:31.721Z,20.58
2018-06-04T23:39:44.145Z,20.55
2018-06-04T23:41:56.548Z,20.46
2018-06-04T23:44:08.994Z,20.38
2018-06-04T23:46:21.437Z,20.20
2018-06-04T23:48:33.786Z,20.19
2018-06-04T23:50:46.150Z,20.15
2018-06-04T23:52:58.726Z,20.13
2018-06-04T23:55:11.393Z,20.07
2018-06-04T23:57:23.815Z,20.01
2018-06-04T23:59:36.177Z,19.99
